PBD437 UUWW-UWUU
Flight info
| Callsign | PBD437 |
|---|---|
| Flight time | N/A |
| Altitude | 35000 |
| Route | KOGO3W KOGOM L94 EKPIR M864 INKEB L94 UNORO T788 NAMUD L994 DILUP DILU3Y |
| Aircraft | B738/M-SADFGHIJ1J4RWY/HB1 |
Departure
| Time | 2026-04-30 14:32 |
|---|---|
| Airport | Vnukovo International Airport (UUWW) |
Arrival
| Time | N/A |
|---|---|
| Airport | Ufa International Airport (UWUU) |
| Time | Latitude | Longitude | Altitude | Speed | Heading |
|---|---|---|---|---|---|
| 2026-04-30 13:51 | 55.60037 | 37.27923 | 686 ft | 0 kts | 24° |
| 2026-04-30 14:23 | 55.60042 | 37.27927 | 687 ft | 3 kts | 24° |
| 2026-04-30 14:23 | 55.60114 | 37.27928 | 690 ft | 6 kts | 302° |
| 2026-04-30 14:24 | 55.60072 | 37.27811 | 693 ft | 4 kts | 226° |
| 2026-04-30 14:24 | 55.60053 | 37.27781 | 687 ft | 4 kts | 220° |
| 2026-04-30 14:25 | 55.60013 | 37.27735 | 692 ft | 3 kts | 217° |
| 2026-04-30 14:25 | 55.59985 | 37.27683 | 692 ft | 2 kts | 228° |
| 2026-04-30 14:26 | 55.59979 | 37.27672 | 688 ft | 0 kts | 228° |
| 2026-04-30 14:27 | 55.59979 | 37.27671 | 688 ft | 1 kts | 228° |
| 2026-04-30 14:27 | 55.59950 | 37.27602 | 694 ft | 13 kts | 241° |
| 2026-04-30 14:27 | 55.59880 | 37.27460 | 688 ft | 16 kts | 226° |
| 2026-04-30 14:28 | 55.59732 | 37.27185 | 689 ft | 15 kts | 226° |
| 2026-04-30 14:28 | 55.59663 | 37.27057 | 694 ft | 14 kts | 226° |
| 2026-04-30 14:28 | 55.59599 | 37.26938 | 694 ft | 13 kts | 226° |
| 2026-04-30 14:28 | 55.59528 | 37.26889 | 692 ft | 12 kts | 155° |
| 2026-04-30 14:29 | 55.59399 | 37.26767 | 687 ft | 11 kts | 222° |
| 2026-04-30 14:29 | 55.59263 | 37.26564 | 691 ft | 15 kts | 214° |
| 2026-04-30 14:30 | 55.58989 | 37.26347 | 694 ft | 14 kts | 204° |
| 2026-04-30 14:31 | 55.58814 | 37.26130 | 689 ft | 16 kts | 249° |
| 2026-04-30 14:31 | 55.58808 | 37.25891 | 689 ft | 11 kts | 356° |
| 2026-04-30 14:31 | 55.58879 | 37.25935 | 693 ft | 11 kts | 23° |
| 2026-04-30 14:32 | 55.59687 | 37.26552 | 695 ft | 132 kts | 23° |
| 2026-04-30 14:32 | 55.60700 | 37.27332 | 800 ft | 181 kts | 22° |
| 2026-04-30 14:32 | 55.61879 | 37.28258 | 1570 ft | 189 kts | 22° |
| 2026-04-30 14:33 | 55.63077 | 37.29171 | 2564 ft | 188 kts | 21° |
| 2026-04-30 14:33 | 55.65644 | 37.31138 | 3703 ft | 209 kts | 24° |
| 2026-04-30 14:33 | 55.66745 | 37.32823 | 4432 ft | 213 kts | 58° |
| 2026-04-30 14:34 | 55.67070 | 37.35435 | 4874 ft | 232 kts | 97° |
| 2026-04-30 14:34 | 55.66533 | 37.38174 | 5428 ft | 239 kts | 112° |
| 2026-04-30 14:34 | 55.65831 | 37.40859 | 6049 ft | 243 kts | 120° |
| 2026-04-30 14:34 | 55.64629 | 37.42997 | 6582 ft | 253 kts | 148° |
| 2026-04-30 14:35 | 55.61325 | 37.45909 | 7065 ft | 275 kts | 155° |
| 2026-04-30 14:35 | 55.59565 | 37.47369 | 7745 ft | 280 kts | 154° |
| 2026-04-30 14:35 | 55.58016 | 37.49369 | 8622 ft | 283 kts | 128° |
| 2026-04-30 14:36 | 55.57180 | 37.52521 | 9483 ft | 283 kts | 100° |
| 2026-04-30 14:36 | 55.56916 | 37.55921 | 10317 ft | 285 kts | 94° |
| 2026-04-30 14:36 | 55.56742 | 37.59440 | 11077 ft | 288 kts | 89° |
| 2026-04-30 14:36 | 55.57120 | 37.62890 | 11833 ft | 288 kts | 64° |
| 2026-04-30 14:37 | 55.58066 | 37.66013 | 12651 ft | 289 kts | 57° |
| 2026-04-30 14:37 | 55.59124 | 37.69121 | 13082 ft | 306 kts | 57° |
| 2026-04-30 14:37 | 55.60248 | 37.72409 | 13611 ft | 317 kts | 57° |
| 2026-04-30 14:37 | 55.61386 | 37.75798 | 14309 ft | 322 kts | 58° |
| 2026-04-30 14:38 | 55.62519 | 37.79226 | 15034 ft | 325 kts | 58° |
| 2026-04-30 14:38 | 55.63663 | 37.82708 | 15751 ft | 328 kts | 58° |
| 2026-04-30 14:38 | 55.64550 | 37.86449 | 16421 ft | 336 kts | 77° |
| 2026-04-30 14:38 | 55.64591 | 37.90595 | 17134 ft | 342 kts | 98° |
| 2026-04-30 14:39 | 55.64092 | 37.94735 | 17854 ft | 345 kts | 102° |
| 2026-04-30 14:39 | 55.63531 | 37.98823 | 18513 ft | 350 kts | 103° |
| 2026-04-30 14:39 | 55.62950 | 38.03080 | 19116 ft | 353 kts | 102° |
| 2026-04-30 14:40 | 55.61836 | 38.11619 | 20362 ft | 359 kts | 101° |
| 2026-04-30 14:40 | 55.61279 | 38.15961 | 20954 ft | 362 kts | 101° |
| 2026-04-30 14:40 | 55.60724 | 38.20324 | 21499 ft | 367 kts | 101° |
| 2026-04-30 14:40 | 55.60163 | 38.24743 | 22037 ft | 371 kts | 101° |
| 2026-04-30 14:41 | 55.59606 | 38.29150 | 22695 ft | 371 kts | 99° |
| 2026-04-30 14:41 | 55.59436 | 38.33728 | 22912 ft | 381 kts | 82° |
| 2026-04-30 14:41 | 55.60125 | 38.38280 | 23052 ft | 390 kts | 63° |
| 2026-04-30 14:41 | 55.61452 | 38.42550 | 23200 ft | 401 kts | 58° |
| 2026-04-30 14:42 | 55.62854 | 38.46874 | 23529 ft | 408 kts | 58° |
| 2026-04-30 14:42 | 55.64261 | 38.51272 | 24011 ft | 411 kts | 59° |
| 2026-04-30 14:42 | 55.65656 | 38.55691 | 24488 ft | 412 kts | 59° |
| 2026-04-30 14:42 | 55.67047 | 38.60141 | 24929 ft | 414 kts | 59° |
| 2026-04-30 14:43 | 55.68437 | 38.64621 | 25328 ft | 416 kts | 59° |
| 2026-04-30 14:43 | 55.69818 | 38.69093 | 25726 ft | 419 kts | 59° |
| 2026-04-30 14:43 | 55.71216 | 38.73634 | 26121 ft | 421 kts | 59° |
| 2026-04-30 14:43 | 55.72627 | 38.78228 | 26516 ft | 423 kts | 59° |
| 2026-04-30 14:44 | 55.74037 | 38.82829 | 26887 ft | 425 kts | 59° |
| 2026-04-30 14:44 | 55.75455 | 38.87465 | 27266 ft | 428 kts | 59° |
| 2026-04-30 14:44 | 55.76878 | 38.92126 | 27624 ft | 430 kts | 59° |
| 2026-04-30 14:44 | 55.78307 | 38.96816 | 27976 ft | 432 kts | 59° |
| 2026-04-30 14:45 | 55.79741 | 39.01532 | 28312 ft | 435 kts | 59° |
| 2026-04-30 14:45 | 55.81161 | 39.06207 | 28653 ft | 437 kts | 59° |
| 2026-04-30 14:45 | 55.82607 | 39.10979 | 28973 ft | 439 kts | 59° |
| 2026-04-30 14:45 | 55.84057 | 39.15777 | 29296 ft | 441 kts | 59° |
| 2026-04-30 14:46 | 55.85512 | 39.20600 | 29614 ft | 443 kts | 59° |
| 2026-04-30 14:46 | 55.86973 | 39.25451 | 29908 ft | 446 kts | 59° |
| 2026-04-30 14:46 | 55.88440 | 39.30334 | 30243 ft | 447 kts | 60° |
| 2026-04-30 14:46 | 55.89409 | 39.33565 | 30477 ft | 446 kts | 60° |
| 2026-04-30 14:47 | 55.91363 | 39.40093 | 30894 ft | 446 kts | 60° |
| 2026-04-30 14:47 | 55.92824 | 39.44985 | 31137 ft | 448 kts | 60° |
| 2026-04-30 14:47 | 55.94289 | 39.49902 | 31382 ft | 449 kts | 60° |
| 2026-04-30 14:47 | 55.95752 | 39.54821 | 31657 ft | 450 kts | 60° |
| 2026-04-30 14:48 | 55.97220 | 39.59767 | 31940 ft | 450 kts | 60° |
| 2026-04-30 14:48 | 55.98687 | 39.64718 | 32191 ft | 452 kts | 60° |
| 2026-04-30 14:48 | 56.00155 | 39.69682 | 32446 ft | 452 kts | 60° |
| 2026-04-30 14:48 | 56.01557 | 39.74713 | 32704 ft | 454 kts | 66° |
| 2026-04-30 14:49 | 56.02546 | 39.80098 | 32968 ft | 456 kts | 75° |
| 2026-04-30 14:49 | 56.03090 | 39.85695 | 33229 ft | 459 kts | 84° |
| 2026-04-30 14:49 | 56.03219 | 39.91328 | 33496 ft | 460 kts | 87° |
| 2026-04-30 14:49 | 56.03269 | 39.97118 | 33727 ft | 461 kts | 88° |
| 2026-04-30 14:50 | 56.03339 | 40.08527 | 34231 ft | 461 kts | 88° |
| 2026-04-30 14:50 | 56.03390 | 40.14256 | 34435 ft | 462 kts | 88° |
| 2026-04-30 14:51 | 56.03516 | 40.25751 | 34829 ft | 463 kts | 88° |
| 2026-04-30 14:51 | 56.03584 | 40.31527 | 35032 ft | 463 kts | 88° |
| 2026-04-30 14:51 | 56.03711 | 40.43064 | 35183 ft | 466 kts | 88° |
| 2026-04-30 14:52 | 56.03770 | 40.48837 | 35197 ft | 466 kts | 88° |
| 2026-04-30 14:52 | 56.03929 | 40.66176 | 35196 ft | 464 kts | 88° |
| 2026-04-30 14:53 | 56.04060 | 40.83460 | 35194 ft | 462 kts | 89° |
| 2026-04-30 14:54 | 56.04184 | 41.06382 | 35188 ft | 462 kts | 89° |
| 2026-04-30 14:55 | 56.04252 | 41.23628 | 35186 ft | 463 kts | 89° |
| 2026-04-30 14:56 | 56.04307 | 41.46727 | 35182 ft | 465 kts | 89° |
| 2026-04-30 14:57 | 56.04319 | 41.64104 | 35180 ft | 467 kts | 90° |
| 2026-04-30 14:58 | 56.04298 | 41.87309 | 35179 ft | 469 kts | 90° |
| 2026-04-30 14:58 | 56.04253 | 42.04829 | 35178 ft | 470 kts | 90° |
| 2026-04-30 15:00 | 56.04123 | 42.34060 | 35172 ft | 470 kts | 90° |
| 2026-04-30 15:01 | 56.03984 | 42.55483 | 35167 ft | 469 kts | 91° |
| 2026-04-30 15:01 | 56.03784 | 42.72982 | 35170 ft | 469 kts | 91° |
| 2026-04-30 15:02 | 56.03634 | 42.84566 | 35165 ft | 468 kts | 91° |
| 2026-04-30 15:03 | 56.03223 | 43.13661 | 35162 ft | 467 kts | 92° |
| 2026-04-30 15:04 | 56.03383 | 43.42578 | 35165 ft | 466 kts | 83° |
| 2026-04-30 15:06 | 56.05439 | 43.71351 | 35157 ft | 466 kts | 84° |
| 2026-04-30 15:07 | 56.06943 | 43.94431 | 35156 ft | 467 kts | 84° |
| 2026-04-30 15:08 | 56.08398 | 44.17472 | 35152 ft | 468 kts | 84° |
| 2026-04-30 15:09 | 56.10172 | 44.46514 | 35147 ft | 469 kts | 85° |
| 2026-04-30 15:10 | 56.11345 | 44.69754 | 35146 ft | 469 kts | 92° |
| 2026-04-30 15:11 | 56.10518 | 45.04794 | 35143 ft | 469 kts | 94° |
| 2026-04-30 15:13 | 56.09814 | 45.34019 | 35153 ft | 469 kts | 94° |
| 2026-04-30 15:14 | 56.08724 | 45.74813 | 35148 ft | 469 kts | 95° |
| 2026-04-30 15:17 | 56.07124 | 46.27266 | 35145 ft | 469 kts | 96° |
| 2026-04-30 15:18 | 56.05508 | 46.56085 | 35141 ft | 463 kts | 112° |
| 2026-04-30 15:19 | 56.02018 | 46.72119 | 35160 ft | 462 kts | 114° |